createdAt,value
2019-03-09T00:01:16.302Z,10.93
2019-03-09T00:03:46.015Z,10.80
2019-03-09T00:06:15.624Z,11.37
2019-03-09T00:08:46.863Z,12.10
2019-03-09T00:11:16.420Z,11.20
2019-03-09T00:13:46.065Z,12.30
2019-03-09T00:16:15.877Z,12.33
2019-03-09T00:18:45.710Z,10.40
2019-03-09T00:21:17.388Z,11.37
2019-03-09T00:24:04.853Z,10.60
2019-03-09T00:26:48.575Z,11.03
2019-03-09T00:29:19.848Z,11.53
2019-03-09T00:32:03.215Z,12.37
2019-03-09T00:34:33.118Z,11.40
2019-03-09T00:37:02.984Z,11.60
2019-03-09T00:39:32.603Z,10.63
2019-03-09T00:42:05.317Z,10.83
2019-03-09T00:44:34.910Z,11.13
2019-03-09T00:47:23.840Z,9.83
2019-03-09T00:49:53.614Z,11.00
2019-03-09T00:52:23.267Z,10.47
2019-03-09T00:54:56.081Z,10.60
2019-03-09T00:57:25.734Z,10.50
2019-03-09T00:59:59.428Z,10.20
2019-03-09T01:02:29.363Z,11.50
2019-03-09T01:04:58.965Z,9.10
2019-03-09T01:07:28.636Z,9.87
2019-03-09T01:09:58.404Z,8.47
2019-03-09T01:12:27.983Z,9.87
2019-03-09T01:14:57.577Z,9.97
2019-03-09T01:17:27.209Z,9.70
2019-03-09T01:19:56.862Z,8.70
2019-03-09T01:22:26.543Z,10.00
2019-03-09T01:24:56.096Z,9.57
2019-03-09T01:27:25.750Z,9.70
2019-03-09T01:29:55.392Z,9.90
2019-03-09T01:32:25.282Z,10.47
2019-03-09T01:34:54.882Z,9.23
2019-03-09T01:37:24.569Z,9.30
2019-03-09T01:39:54.278Z,9.43
2019-03-09T01:42:23.789Z,9.70
2019-03-09T01:44:53.314Z,10.70
2019-03-09T01:47:24.606Z,9.90
2019-03-09T01:49:54.192Z,10.87
2019-03-09T01:52:23.980Z,10.20
2019-03-09T01:54:54.142Z,11.60
2019-03-09T01:57:23.676Z,11.30
2019-03-09T01:59:53.871Z,11.70
2019-03-09T02:02:23.507Z,10.00
2019-03-09T02:04:53.078Z,11.33
2019-03-09T02:07:22.672Z,11.37
2019-03-09T02:09:52.299Z,11.50
2019-03-09T02:12:21.888Z,12.10
2019-03-09T02:14:51.555Z,12.80
2019-03-09T02:17:21.347Z,14.10
2019-03-09T02:19:50.927Z,13.10
2019-03-09T02:22:20.765Z,13.40
2019-03-09T02:24:50.473Z,15.80
2019-03-09T02:27:19.989Z,14.03
2019-03-09T02:29:49.515Z,14.60
2019-03-09T02:32:19.119Z,15.37
2019-03-09T02:34:48.768Z,15.73
2019-03-09T02:37:18.282Z,16.00
2019-03-09T02:39:49.721Z,15.93
2019-03-09T02:42:19.428Z,15.97
2019-03-09T02:44:49.099Z,16.13
2019-03-09T02:47:18.707Z,16.30
2019-03-09T02:49:48.295Z,16.80
2019-03-09T02:52:17.992Z,16.17
2019-03-09T02:54:47.897Z,17.63
2019-03-09T02:57:19.287Z,16.87
2019-03-09T02:59:48.867Z,16.30
2019-03-09T03:02:20.431Z,16.70
2019-03-09T03:04:52.963Z,16.00
2019-03-09T03:07:22.489Z,15.63
2019-03-09T03:09:52.104Z,16.30
2019-03-09T03:12:21.700Z,16.03
2019-03-09T03:14:51.394Z,16.10
2019-03-09T03:17:20.939Z,15.03
2019-03-09T03:19:50.642Z,14.27
2019-03-09T03:22:20.238Z,14.93
2019-03-09T03:24:51.900Z,15.25
2019-03-09T03:27:21.408Z,14.20
2019-03-09T03:29:51.010Z,13.67
2019-03-09T03:32:22.526Z,14.00
2019-03-09T03:34:52.594Z,13.57
2019-03-09T03:37:22.097Z,13.80
2019-03-09T03:39:54.601Z,14.33
2019-03-09T03:42:24.172Z,13.60
2019-03-09T03:44:53.802Z,13.67
2019-03-09T03:47:23.441Z,13.00
2019-03-09T03:49:52.963Z,13.90
2019-03-09T03:52:25.076Z,12.70
2019-03-09T03:54:54.633Z,12.53
2019-03-09T03:57:24.230Z,13.00
2019-03-09T03:59:53.729Z,12.33
2019-03-09T04:02:23.473Z,12.40
2019-03-09T04:04:53.008Z,12.20
2019-03-09T04:07:22.611Z,12.90
2019-03-09T04:09:53.024Z,10.93
2019-03-09T04:12:23.197Z,11.37
2019-03-09T04:14:52.783Z,10.80
2019-03-09T04:17:22.343Z,9.87
2019-03-09T04:19:52.289Z,10.70
2019-03-09T04:22:21.838Z,10.60
2019-03-09T04:24:51.981Z,9.63
2019-03-09T04:27:21.577Z,9.47
2019-03-09T04:29:51.194Z,8.73
2019-03-09T04:32:20.812Z,7.47
2019-03-09T04:34:50.389Z,7.60
2019-03-09T04:37:19.903Z,7.67
2019-03-09T04:39:49.520Z,8.10
2019-03-09T04:42:19.026Z,8.00
2019-03-09T04:44:48.546Z,6.60
2019-03-09T04:47:18.175Z,7.62
2019-03-09T04:49:47.753Z,7.17
2019-03-09T04:52:17.272Z,7.27
2019-03-09T04:54:46.833Z,7.10
2019-03-09T04:57:16.341Z,7.33
2019-03-09T04:59:45.838Z,6.42
2019-03-09T05:02:15.582Z,6.90
2019-03-09T05:04:47.594Z,7.30
2019-03-09T05:07:22.567Z,7.07
2019-03-09T05:09:59.497Z,7.10
2019-03-09T05:12:29.109Z,8.00
2019-03-09T05:14:58.627Z,6.37
2019-03-09T05:17:28.134Z,7.73
2019-03-09T05:19:57.671Z,7.53
2019-03-09T05:22:27.247Z,7.37
2019-03-09T05:24:56.735Z,6.93
2019-03-09T05:27:28.507Z,7.90
2019-03-09T05:29:57.999Z,6.93
2019-03-09T05:32:27.658Z,7.63
2019-03-09T05:34:57.681Z,7.37
2019-03-09T05:37:27.182Z,7.60
2019-03-09T05:39:56.703Z,7.30
2019-03-09T05:42:26.313Z,7.40
2019-03-09T05:44:55.840Z,7.30
2019-03-09T05:47:25.345Z,7.07
2019-03-09T05:49:55.111Z,7.10
2019-03-09T05:52:28.464Z,6.17
2019-03-09T05:54:58.079Z,5.33
2019-03-09T05:57:27.671Z,5.73
2019-03-09T05:59:57.238Z,6.27
2019-03-09T06:02:26.832Z,6.30
2019-03-09T06:04:56.961Z,6.47
2019-03-09T06:07:26.463Z,6.10
2019-03-09T06:09:56.042Z,6.10
2019-03-09T06:12:25.588Z,6.20
2019-03-09T06:14:55.109Z,5.13
2019-03-09T06:17:24.623Z,5.27
2019-03-09T06:19:54.233Z,5.30
2019-03-09T06:22:23.807Z,5.30
2019-03-09T06:24:53.300Z,4.53
2019-03-09T06:27:23.084Z,5.10
2019-03-09T06:29:54.171Z,4.60
2019-03-09T06:32:37.285Z,4.70
2019-03-09T06:35:22.862Z,5.03
2019-03-09T06:38:25.562Z,4.20
2019-03-09T06:41:02.735Z,5.03
2019-03-09T06:43:26.325Z,4.57
2019-03-09T06:45:56.443Z,4.90
2019-03-09T06:48:26.008Z,4.73
2019-03-09T06:50:55.588Z,4.60
2019-03-09T06:53:25.131Z,4.40
2019-03-09T06:55:54.636Z,2.90
2019-03-09T06:58:24.157Z,3.67
2019-03-09T07:00:56.007Z,2.73
2019-03-09T07:03:25.600Z,3.67
2019-03-09T07:05:55.250Z,3.80
2019-03-09T07:08:25.907Z,3.40
2019-03-09T07:10:55.511Z,3.77
2019-03-09T07:13:25.050Z,3.63
2019-03-09T07:15:54.624Z,3.50
2019-03-09T07:18:24.122Z,4.73
2019-03-09T07:20:53.701Z,3.43
2019-03-09T07:23:23.297Z,3.17
2019-03-09T07:25:53.023Z,3.63
2019-03-09T07:28:22.621Z,4.30
2019-03-09T07:30:54.103Z,4.03
2019-03-09T07:33:23.807Z,3.67
2019-03-09T07:35:53.469Z,3.50
2019-03-09T07:38:23.031Z,3.40
2019-03-09T07:40:52.566Z,3.43
2019-03-09T07:43:22.144Z,3.53
2019-03-09T07:45:51.844Z,4.80
2019-03-09T07:48:23.473Z,4.30
2019-03-09T07:50:53.130Z,3.00
2019-03-09T07:53:22.936Z,4.03
2019-03-09T07:55:52.638Z,2.87
2019-03-09T07:58:22.142Z,4.03
2019-03-09T08:00:51.753Z,4.10
2019-03-09T08:03:21.555Z,4.60
2019-03-09T08:05:51.266Z,4.23
2019-03-09T08:08:20.851Z,4.90
2019-03-09T08:10:50.448Z,4.97
2019-03-09T08:13:19.974Z,4.00
2019-03-09T08:15:51.596Z,5.53
2019-03-09T08:18:21.114Z,4.17
2019-03-09T08:20:50.683Z,4.87
2019-03-09T08:23:20.333Z,4.30
2019-03-09T08:25:49.941Z,4.07
2019-03-09T08:28:19.482Z,6.13
2019-03-09T08:30:49.194Z,3.67
2019-03-09T08:33:18.754Z,5.03
2019-03-09T08:35:48.295Z,4.40
2019-03-09T08:38:18.299Z,4.37
2019-03-09T08:40:48.057Z,6.13
2019-03-09T08:43:17.551Z,4.37
2019-03-09T08:45:49.152Z,4.30
2019-03-09T08:48:18.765Z,6.30
2019-03-09T08:50:48.347Z,5.20
2019-03-09T08:53:18.023Z,4.90
2019-03-09T08:55:47.620Z,4.40
2019-03-09T08:58:17.262Z,5.10
2019-03-09T09:00:47.178Z,4.13
2019-03-09T09:03:16.690Z,5.77
2019-03-09T09:05:46.302Z,4.60
2019-03-09T09:08:15.890Z,4.60
2019-03-09T09:10:45.606Z,3.80
2019-03-09T09:13:15.296Z,3.70
2019-03-09T09:15:44.846Z,5.23
2019-03-09T09:18:33.764Z,4.87
2019-03-09T09:21:03.518Z,4.37
2019-03-09T09:23:34.757Z,4.80
2019-03-09T09:26:04.332Z,4.70
2019-03-09T09:28:33.874Z,4.63
2019-03-09T09:31:03.404Z,4.97
2019-03-09T09:33:34.465Z,4.30
2019-03-09T09:36:04.602Z,3.53
2019-03-09T09:38:34.306Z,3.33
2019-03-09T09:41:03.931Z,3.40
2019-03-09T09:43:33.556Z,3.90
2019-03-09T09:46:03.312Z,3.80
2019-03-09T09:48:33.004Z,4.20
2019-03-09T09:51:02.728Z,4.80
2019-03-09T09:53:32.251Z,3.10
2019-03-09T09:56:01.836Z,4.67
2019-03-09T09:58:31.811Z,3.67
2019-03-09T10:01:01.329Z,4.30
2019-03-09T10:03:30.850Z,3.50
2019-03-09T10:06:00.612Z,3.90
2019-03-09T10:08:33.008Z,3.53
2019-03-09T10:11:02.642Z,4.03
2019-03-09T10:13:32.270Z,4.40
2019-03-09T10:16:02.189Z,4.00
2019-03-09T10:18:32.038Z,4.10
2019-03-09T10:21:04.804Z,4.17
2019-03-09T10:23:34.596Z,4.20
2019-03-09T10:26:04.306Z,3.30
2019-03-09T10:28:34.293Z,4.93
2019-03-09T10:31:04.001Z,3.10
2019-03-09T10:33:33.857Z,3.20
2019-03-09T10:36:04.487Z,4.03
2019-03-09T10:38:34.125Z,4.00
2019-03-09T10:41:03.768Z,4.40
2019-03-09T10:43:33.440Z,4.23
2019-03-09T10:46:03.508Z,7.70
2019-03-09T10:48:33.080Z,4.70
2019-03-09T10:51:03.881Z,4.60
2019-03-09T10:53:33.418Z,3.30
2019-03-09T10:56:02.972Z,4.27
2019-03-09T10:58:32.661Z,4.33
2019-03-09T11:01:02.449Z,3.40
2019-03-09T11:03:32.047Z,3.93
2019-03-09T11:06:01.856Z,3.37
2019-03-09T11:08:34.218Z,5.10
2019-03-09T11:11:03.863Z,4.00
2019-03-09T11:13:33.833Z,3.43
2019-03-09T11:16:03.424Z,3.10
2019-03-09T11:18:33.312Z,4.10
2019-03-09T11:21:02.929Z,4.60
2019-03-09T11:23:34.327Z,4.23
2019-03-09T11:26:03.863Z,3.10
2019-03-09T11:28:33.430Z,3.13
2019-03-09T11:31:02.951Z,4.27
2019-03-09T11:33:32.604Z,4.50
2019-03-09T11:36:02.209Z,3.83
2019-03-09T11:38:31.713Z,3.90
2019-03-09T11:41:01.270Z,3.67
2019-03-09T11:43:30.820Z,3.27
2019-03-09T11:46:00.483Z,4.30
2019-03-09T11:48:30.022Z,3.70
2019-03-09T11:50:59.783Z,3.13
2019-03-09T11:53:29.384Z,3.60
2019-03-09T11:55:58.926Z,3.70
2019-03-09T11:58:28.808Z,4.27
2019-03-09T12:00:58.395Z,4.20
2019-03-09T12:03:28.135Z,3.90
2019-03-09T12:05:57.699Z,3.63
2019-03-09T12:08:27.374Z,4.33
2019-03-09T12:10:56.888Z,4.10
2019-03-09T12:13:26.576Z,4.17
2019-03-09T12:15:56.099Z,4.13
2019-03-09T12:18:25.710Z,3.17
2019-03-09T12:20:55.484Z,3.73
2019-03-09T12:23:26.174Z,4.20
2019-03-09T12:25:55.800Z,3.40
2019-03-09T12:28:25.709Z,5.00
2019-03-09T12:30:55.286Z,3.53
2019-03-09T12:33:24.864Z,3.97
2019-03-09T12:35:55.864Z,4.83
2019-03-09T12:38:25.911Z,5.07
2019-03-09T12:40:55.452Z,4.30
2019-03-09T12:43:25.228Z,3.90
2019-03-09T12:45:54.918Z,3.40
2019-03-09T12:48:24.589Z,3.80
2019-03-09T12:50:54.291Z,3.03
2019-03-09T12:53:24.292Z,3.53
2019-03-09T12:55:54.074Z,3.60
2019-03-09T12:58:23.730Z,3.93
2019-03-09T13:00:53.403Z,4.10
2019-03-09T13:03:22.908Z,4.03
2019-03-09T13:05:52.732Z,4.43
2019-03-09T13:08:23.575Z,4.20
2019-03-09T13:10:55.721Z,3.63
2019-03-09T13:13:24.647Z,3.90
2019-03-09T13:15:54.429Z,3.23
2019-03-09T13:18:24.076Z,3.90
2019-03-09T13:20:54.187Z,3.80
2019-03-09T13:23:23.810Z,3.87
2019-03-09T13:25:53.405Z,4.07
2019-03-09T13:28:23.113Z,3.97
2019-03-09T13:30:52.636Z,3.73
2019-03-09T13:33:22.171Z,3.53
2019-03-09T13:35:51.904Z,4.13
2019-03-09T13:38:21.583Z,4.60
2019-03-09T13:40:51.188Z,4.30
2019-03-09T13:43:20.870Z,4.30
2019-03-09T13:45:50.463Z,3.70
2019-03-09T13:48:20.042Z,4.23
2019-03-09T13:50:49.686Z,4.17
2019-03-09T13:53:19.359Z,3.67
2019-03-09T13:55:52.233Z,3.70
2019-03-09T13:58:22.362Z,4.53
2019-03-09T14:00:52.052Z,3.80
2019-03-09T14:03:22.415Z,3.70
2019-03-09T14:05:52.404Z,3.63
2019-03-09T14:08:22.639Z,4.13
2019-03-09T14:10:52.262Z,5.03
2019-03-09T14:13:22.576Z,4.27
2019-03-09T14:15:52.241Z,3.93
2019-03-09T14:18:22.095Z,4.27
2019-03-09T14:20:52.046Z,4.30
2019-03-09T14:23:21.956Z,3.63
2019-03-09T14:25:51.627Z,2.97
2019-03-09T14:28:21.420Z,3.80
2019-03-09T14:30:51.544Z,3.77
2019-03-09T14:33:21.235Z,3.20
2019-03-09T14:35:51.116Z,3.63
2019-03-09T14:38:22.741Z,4.10
2019-03-09T14:40:52.515Z,3.37
2019-03-09T14:43:22.235Z,3.00
2019-03-09T14:45:51.911Z,3.63
2019-03-09T14:48:21.542Z,3.90
2019-03-09T14:50:51.513Z,4.10
2019-03-09T14:53:21.062Z,4.53
2019-03-09T14:55:50.783Z,3.67
2019-03-09T14:58:20.632Z,3.43
2019-03-09T15:00:51.050Z,3.90
2019-03-09T15:03:24.465Z,3.43
2019-03-09T15:05:58.292Z,3.17
2019-03-09T15:08:35.017Z,3.40
2019-03-09T15:11:04.801Z,3.03
2019-03-09T15:13:35.165Z,2.80
2019-03-09T15:16:04.853Z,2.80
2019-03-09T15:18:37.352Z,3.10
2019-03-09T15:21:07.035Z,3.80
2019-03-09T15:23:36.544Z,2.73
2019-03-09T15:26:06.252Z,2.50
2019-03-09T15:28:35.837Z,3.00
2019-03-09T15:31:05.453Z,2.83
2019-03-09T15:33:35.109Z,2.23
2019-03-09T15:36:04.777Z,2.50
2019-03-09T15:38:34.482Z,2.00
2019-03-09T15:41:05.324Z,2.07
2019-03-09T15:43:37.215Z,2.47
2019-03-09T15:46:06.886Z,3.07
2019-03-09T15:48:37.057Z,2.00
2019-03-09T15:51:06.726Z,2.40
2019-03-09T15:53:36.408Z,2.30
2019-03-09T15:56:06.255Z,1.93
2019-03-09T15:58:37.213Z,3.23
2019-03-09T16:01:07.452Z,3.07
2019-03-09T16:03:37.168Z,2.97
2019-03-09T16:06:06.757Z,2.43
2019-03-09T16:08:36.365Z,2.57
2019-03-09T16:11:09.069Z,2.53
2019-03-09T16:13:38.619Z,2.37
2019-03-09T16:16:08.778Z,2.83
2019-03-09T16:18:38.443Z,3.20
2019-03-09T16:21:08.038Z,3.10
2019-03-09T16:23:37.665Z,3.27
2019-03-09T16:26:07.377Z,4.17
2019-03-09T16:28:36.898Z,3.70
2019-03-09T16:31:06.608Z,4.47
2019-03-09T16:33:38.956Z,4.10
2019-03-09T16:36:08.957Z,4.60
2019-03-09T16:38:38.619Z,4.90
2019-03-09T16:41:08.312Z,5.47
2019-03-09T16:43:37.938Z,5.10
2019-03-09T16:46:07.522Z,5.83
2019-03-09T16:48:37.416Z,8.50
2019-03-09T16:51:07.078Z,5.10
2019-03-09T16:53:36.605Z,4.03
2019-03-09T16:56:07.607Z,4.47
2019-03-09T16:58:37.199Z,3.90
2019-03-09T17:01:07.702Z,4.17
2019-03-09T17:03:37.261Z,4.10
2019-03-09T17:06:07.180Z,4.87
2019-03-09T17:08:36.786Z,4.30
2019-03-09T17:11:09.022Z,4.50
2019-03-09T17:13:38.737Z,4.00
2019-03-09T17:16:08.347Z,4.63
2019-03-09T17:18:38.061Z,4.50
2019-03-09T17:21:07.691Z,3.80
2019-03-09T17:23:37.210Z,4.50
2019-03-09T17:26:06.827Z,4.70
2019-03-09T17:28:36.376Z,4.13
2019-03-09T17:31:06.080Z,4.50
2019-03-09T17:33:36.213Z,4.13
2019-03-09T17:36:05.866Z,4.40
2019-03-09T17:38:35.452Z,4.67
2019-03-09T17:41:05.152Z,3.60
2019-03-09T17:43:34.790Z,3.37
2019-03-09T17:46:05.912Z,4.50
2019-03-09T17:48:35.486Z,3.17
2019-03-09T17:51:05.165Z,6.20
2019-03-09T17:53:34.670Z,2.90
2019-03-09T17:56:04.406Z,4.07
2019-03-09T17:58:36.354Z,3.10
2019-03-09T18:01:05.946Z,3.40
2019-03-09T18:03:35.591Z,3.87
2019-03-09T18:06:05.207Z,3.27
2019-03-09T18:08:34.753Z,2.77
2019-03-09T18:11:12.655Z,2.50
2019-03-09T18:13:42.290Z,1.87
2019-03-09T18:16:12.105Z,1.80
2019-03-09T18:18:41.833Z,1.90
2019-03-09T18:21:11.609Z,1.80
2019-03-09T18:23:41.188Z,1.73
2019-03-09T18:26:11.565Z,1.30
2019-03-09T18:28:41.291Z,0.93
2019-03-09T18:31:10.954Z,1.13
2019-03-09T18:33:41.083Z,0.93
2019-03-09T18:36:10.903Z,1.00
2019-03-09T18:38:40.713Z,0.80
2019-03-09T18:41:12.985Z,0.80
2019-03-09T18:43:42.618Z,2.17
2019-03-09T18:46:13.879Z,0.90
2019-03-09T18:48:44.737Z,1.00
2019-03-09T18:51:14.871Z,0.80
2019-03-09T18:53:44.779Z,1.10
2019-03-09T18:56:14.374Z,1.07
2019-03-09T18:58:44.062Z,1.40
2019-03-09T19:01:13.649Z,1.10
2019-03-09T19:03:43.339Z,1.87
2019-03-09T19:06:13.129Z,1.50
2019-03-09T19:08:42.936Z,1.07
2019-03-09T19:11:13.148Z,1.63
2019-03-09T19:13:42.939Z,1.00
2019-03-09T19:16:12.877Z,1.30
2019-03-09T19:18:42.742Z,1.70
2019-03-09T19:21:13.613Z,1.80
2019-03-09T19:23:46.335Z,1.40
2019-03-09T19:26:16.502Z,1.57
2019-03-09T19:28:46.047Z,1.87
2019-03-09T19:31:15.628Z,1.60
2019-03-09T19:33:45.802Z,1.80
2019-03-09T19:36:15.408Z,1.93
2019-03-09T19:38:45.399Z,2.30
2019-03-09T19:41:15.159Z,1.80
2019-03-09T19:43:44.928Z,1.80
2019-03-09T19:46:14.542Z,2.00
2019-03-09T19:48:44.491Z,1.53
2019-03-09T19:51:16.457Z,2.22
2019-03-09T19:53:46.031Z,1.63
2019-03-09T19:56:15.805Z,1.40
2019-03-09T19:58:45.491Z,1.90
2019-03-09T20:01:15.155Z,2.10
2019-03-09T20:03:44.750Z,3.47
2019-03-09T20:06:14.267Z,1.40
2019-03-09T20:08:43.787Z,2.00
2019-03-09T20:11:13.467Z,2.12
2019-03-09T20:13:43.143Z,2.50
2019-03-09T20:16:12.665Z,2.70
2019-03-09T20:18:42.466Z,2.63
2019-03-09T20:21:12.050Z,2.05
2019-03-09T20:23:41.699Z,2.58
2019-03-09T20:26:11.348Z,2.25
2019-03-09T20:28:40.902Z,2.42
2019-03-09T20:31:10.593Z,2.60
2019-03-09T20:33:40.431Z,2.45
2019-03-09T20:36:09.953Z,1.85
2019-03-09T20:38:41.230Z,1.72
2019-03-09T20:41:10.982Z,2.37
2019-03-09T20:43:40.582Z,1.90
2019-03-09T20:46:10.318Z,2.20
2019-03-09T20:48:39.862Z,2.40
2019-03-09T20:51:09.475Z,2.60
2019-03-09T20:53:38.963Z,1.97
2019-03-09T20:56:08.929Z,2.62
2019-03-09T20:58:38.541Z,2.17
2019-03-09T21:01:08.080Z,2.30
2019-03-09T21:03:38.021Z,2.70
2019-03-09T21:06:07.722Z,3.20
2019-03-09T21:08:37.654Z,2.80
2019-03-09T21:11:07.430Z,2.10
2019-03-09T21:13:37.040Z,2.95
2019-03-09T21:16:06.715Z,3.05
2019-03-09T21:18:37.585Z,2.70
2019-03-09T21:21:26.536Z,1.90
2019-03-09T21:23:56.886Z,2.35
2019-03-09T21:26:26.570Z,2.50
2019-03-09T21:28:56.157Z,2.70
2019-03-09T21:31:26.116Z,1.80
2019-03-09T21:33:55.678Z,2.40
2019-03-09T21:36:25.204Z,3.00
2019-03-09T21:38:55.326Z,3.12
2019-03-09T21:41:25.127Z,2.70
2019-03-09T21:43:56.454Z,2.42
2019-03-09T21:46:26.672Z,3.20
2019-03-09T21:48:58.140Z,2.62
2019-03-09T21:51:27.954Z,2.33
2019-03-09T21:53:57.900Z,3.00
2019-03-09T21:56:27.492Z,2.92
2019-03-09T21:58:57.173Z,3.05
2019-03-09T22:01:26.786Z,2.80
2019-03-09T22:03:56.518Z,4.00
2019-03-09T22:06:26.297Z,2.70
2019-03-09T22:08:55.996Z,2.30
2019-03-09T22:11:25.730Z,3.00
2019-03-09T22:13:55.425Z,3.90
2019-03-09T22:16:25.505Z,2.47
2019-03-09T22:18:55.400Z,2.50
2019-03-09T22:21:24.942Z,3.08
2019-03-09T22:23:54.516Z,2.47
2019-03-09T22:26:24.193Z,2.00
2019-03-09T22:28:53.831Z,2.42
2019-03-09T22:31:43.668Z,2.10
2019-03-09T22:34:13.214Z,3.22
2019-03-09T22:36:42.887Z,2.58
2019-03-09T22:39:12.686Z,2.30
2019-03-09T22:41:42.324Z,2.97
2019-03-09T22:44:11.859Z,2.83
2019-03-09T22:46:41.563Z,2.90
2019-03-09T22:49:11.175Z,3.13
2019-03-09T22:51:42.003Z,2.58
2019-03-09T22:54:13.502Z,2.62
2019-03-09T22:56:43.578Z,2.70
2019-03-09T22:59:13.099Z,2.47
2019-03-09T23:01:42.941Z,2.72
2019-03-09T23:04:12.541Z,2.42
2019-03-09T23:06:42.262Z,2.17
2019-03-09T23:09:12.390Z,2.20
2019-03-09T23:11:41.968Z,2.33
2019-03-09T23:14:13.720Z,2.52
2019-03-09T23:16:43.789Z,3.00
2019-03-09T23:19:13.850Z,2.45
2019-03-09T23:21:44.267Z,1.90
2019-03-09T23:24:13.930Z,2.55
2019-03-09T23:26:43.584Z,2.50
2019-03-09T23:29:13.118Z,2.02
2019-03-09T23:31:42.660Z,2.30
2019-03-09T23:34:12.337Z,2.03
2019-03-09T23:36:42.122Z,2.13
2019-03-09T23:39:13.006Z,2.00
2019-03-09T23:41:43.189Z,2.37
2019-03-09T23:44:12.845Z,2.08
2019-03-09T23:46:42.873Z,2.00
2019-03-09T23:49:12.456Z,2.27
2019-03-09T23:51:42.045Z,2.03
2019-03-09T23:54:11.688Z,1.60
2019-03-09T23:56:41.870Z,2.65
2019-03-09T23:59:11.701Z,2.17
